createdAt,value
2023-06-04T00:00:03.602Z,98911.63
2023-06-04T00:02:34.304Z,98912.22
2023-06-04T00:05:04.970Z,98902.75
2023-06-04T00:07:35.545Z,98906.72
2023-06-04T00:10:07.505Z,98902.16
2023-06-04T00:12:38.124Z,98902.84
2023-06-04T00:15:11.636Z,98898.41
2023-06-04T00:17:42.370Z,98894.81
2023-06-04T00:20:13.885Z,98884.47
2023-06-04T00:22:44.410Z,98891.19
2023-06-04T00:25:14.880Z,98888.59
2023-06-04T00:27:45.341Z,98897.06
2023-06-04T00:30:18.396Z,98894.13
2023-06-04T00:32:49.075Z,98888.91
2023-06-04T00:35:19.768Z,98886.84
2023-06-04T00:37:50.496Z,98884.44
2023-06-04T00:40:21.094Z,98889.91
2023-06-04T00:42:51.577Z,98886.94
2023-06-04T00:45:23.924Z,98884.06
2023-06-04T00:47:54.923Z,98887.69
2023-06-04T00:50:25.425Z,98876.28
2023-06-04T00:52:56.169Z,98860.91
2023-06-04T00:55:26.739Z,98875.34
2023-06-04T00:57:57.284Z,98877.59
2023-06-04T01:00:29.688Z,98875.06
2023-06-04T01:03:07.919Z,98857.47
2023-06-04T01:05:44.978Z,98820.78
2023-06-04T01:08:17.259Z,98861.69
2023-06-04T01:10:55.465Z,98867.16
2023-06-04T01:13:26.100Z,98869.81
2023-06-04T01:16:01.743Z,98865.25
2023-06-04T01:18:34.945Z,98840.44
2023-06-04T01:21:10.663Z,98825.78
2023-06-04T01:23:49.484Z,98844.28
2023-06-04T01:26:23.693Z,98839.31
2023-06-04T01:28:55.109Z,98850.44
2023-06-04T01:31:28.067Z,98847.72
2023-06-04T01:33:59.746Z,98848.31
2023-06-04T01:36:30.377Z,98844.81
2023-06-04T01:39:02.667Z,98839.59
2023-06-04T01:41:33.188Z,98848.31
2023-06-04T01:44:03.752Z,98841.69
2023-06-04T01:46:36.046Z,98837.13
2023-06-04T01:49:08.111Z,98847.31
2023-06-04T01:51:38.736Z,98838.72
2023-06-04T01:54:09.844Z,98844.38
2023-06-04T01:56:40.477Z,98834.78
2023-06-04T01:59:13.966Z,98840.03
2023-06-04T02:01:46.286Z,98835.75
2023-06-04T02:04:16.774Z,98834.16
2023-06-04T02:06:47.321Z,98827.66
2023-06-04T02:09:17.961Z,98827.88
2023-06-04T02:11:48.503Z,98825.22
2023-06-04T02:14:19.078Z,98823.69
2023-06-04T02:16:51.758Z,98815.75
2023-06-04T02:19:22.636Z,98824.47
2023-06-04T02:21:53.242Z,98821.19
2023-06-04T02:24:23.934Z,98821.28
2023-06-04T02:26:57.639Z,98815.97
2023-06-04T02:29:28.565Z,98780.31
2023-06-04T02:32:00.864Z,98817.88
2023-06-04T02:34:31.628Z,98806.31
2023-06-04T02:37:02.134Z,98807.97
2023-06-04T02:39:32.830Z,98808.84
2023-06-04T02:42:03.272Z,98808.84
2023-06-04T02:44:33.853Z,98809.41
2023-06-04T02:47:05.963Z,98786.50
2023-06-04T02:49:36.490Z,98808.31
2023-06-04T02:52:07.387Z,98786.91
2023-06-04T02:54:37.941Z,98805.00
2023-06-04T02:57:09.263Z,98799.91
2023-06-04T02:59:39.916Z,98803.50
2023-06-04T03:02:13.069Z,98807.88
2023-06-04T03:04:44.473Z,98794.09
2023-06-04T03:07:15.344Z,98796.66
2023-06-04T03:09:45.991Z,98796.69
2023-06-04T03:12:16.558Z,98784.69
2023-06-04T03:14:47.001Z,98784.34
2023-06-04T03:17:19.516Z,98787.56
2023-06-04T03:19:50.067Z,98785.72
2023-06-04T03:22:20.622Z,98778.09
2023-06-04T03:24:51.147Z,98780.78
2023-06-04T03:27:21.702Z,98778.16
2023-06-04T03:29:52.202Z,98780.72
2023-06-04T03:32:24.254Z,98779.94
2023-06-04T03:34:54.637Z,98767.13
2023-06-04T03:37:25.175Z,98775.63
2023-06-04T03:39:55.688Z,98779.97
2023-06-04T03:42:26.191Z,98773.91
2023-06-04T03:44:56.663Z,98779.25
2023-06-04T03:47:28.853Z,98785.25
2023-06-04T03:49:59.378Z,98782.66
2023-06-04T03:52:30.319Z,98775.16
2023-06-04T03:55:00.959Z,98782.78
2023-06-04T03:57:31.548Z,98776.47
2023-06-04T04:00:02.179Z,98784.16
2023-06-04T04:02:34.802Z,98781.66
2023-06-04T04:05:05.442Z,98786.09
2023-06-04T04:07:36.039Z,98784.56
2023-06-04T04:10:07.833Z,98786.25
2023-06-04T04:12:38.453Z,98782.66
2023-06-04T04:15:10.806Z,98786.94
2023-06-04T04:17:43.031Z,98782.78
2023-06-04T04:20:14.766Z,98783.72
2023-06-04T04:22:45.667Z,98787.28
2023-06-04T04:25:16.167Z,98787.34
2023-06-04T04:27:46.683Z,98788.06
2023-06-04T04:30:18.589Z,98782.78
2023-06-04T04:32:52.034Z,98786.25
2023-06-04T04:35:22.606Z,98784.78
2023-06-04T04:37:53.135Z,98788.41
2023-06-04T04:40:23.680Z,98786.66
2023-06-04T04:42:54.264Z,98790.09
2023-06-04T04:45:24.810Z,98776.38
2023-06-04T04:47:57.053Z,98784.78
2023-06-04T04:50:27.795Z,98781.16
2023-06-04T04:52:58.361Z,98782.97
2023-06-04T04:55:28.940Z,98782.84
2023-06-04T04:57:59.613Z,98785.66
2023-06-04T05:00:30.098Z,98788.28
2023-06-04T05:03:02.379Z,98787.66
2023-06-04T05:05:32.945Z,98790.31
2023-06-04T05:08:03.537Z,98791.91
2023-06-04T05:10:34.252Z,98790.09
2023-06-04T05:13:04.795Z,98780.59
2023-06-04T05:15:36.409Z,98795.00
2023-06-04T05:18:09.681Z,98795.00
2023-06-04T05:20:40.822Z,98786.50
2023-06-04T05:23:11.289Z,98777.88
2023-06-04T05:25:42.749Z,98790.00
2023-06-04T05:28:14.773Z,98788.28
2023-06-04T05:30:45.656Z,98784.88
2023-06-04T05:33:21.125Z,98787.66
2023-06-04T05:35:51.953Z,98783.41
2023-06-04T05:38:22.544Z,98770.53
2023-06-04T05:40:54.222Z,98789.56
2023-06-04T05:43:26.287Z,98788.00
2023-06-04T05:45:57.018Z,98785.53
2023-06-04T05:48:29.296Z,98775.09
2023-06-04T05:50:59.841Z,98784.19
2023-06-04T05:53:30.548Z,98788.50
2023-06-04T05:56:01.092Z,98789.44
2023-06-04T05:58:31.765Z,98783.50
2023-06-04T06:01:02.245Z,98782.13
2023-06-04T06:03:34.649Z,98784.34
2023-06-04T06:06:05.318Z,98781.88
2023-06-04T06:08:35.898Z,98783.88
2023-06-04T06:11:09.945Z,98791.00
2023-06-04T06:13:41.553Z,98789.47
2023-06-04T06:16:12.290Z,98761.72
2023-06-04T06:18:44.468Z,98791.03
2023-06-04T06:21:15.094Z,98791.56
2023-06-04T06:23:45.652Z,98796.38
2023-06-04T06:26:16.459Z,98805.47
2023-06-04T06:28:48.056Z,98806.75
2023-06-04T06:31:19.899Z,98805.31
2023-06-04T06:33:52.227Z,98807.31
2023-06-04T06:36:22.730Z,98816.91
2023-06-04T06:38:54.328Z,98805.72
2023-06-04T06:41:25.445Z,98815.38
2023-06-04T06:43:56.160Z,98811.84
2023-06-04T06:46:26.777Z,98805.56
2023-06-04T06:48:59.482Z,98810.78
2023-06-04T06:51:31.187Z,98816.06
2023-06-04T06:54:03.737Z,98813.53
2023-06-04T06:56:34.331Z,98818.59
2023-06-04T06:59:05.028Z,98816.81
2023-06-04T07:01:35.850Z,98802.63
2023-06-04T07:04:08.245Z,98800.75
2023-06-04T07:06:39.660Z,98804.19
2023-06-04T07:09:10.556Z,98804.97
2023-06-04T07:11:41.075Z,98801.56
2023-06-04T07:14:11.628Z,98814.38
2023-06-04T07:16:42.220Z,98805.81
2023-06-04T07:19:14.325Z,98786.47
2023-06-04T07:21:44.870Z,98799.66
2023-06-04T07:24:15.685Z,98806.50
2023-06-04T07:26:46.278Z,98805.66
2023-06-04T07:29:17.124Z,98809.75
2023-06-04T07:31:47.736Z,98796.13
2023-06-04T07:34:19.910Z,98803.50
2023-06-04T07:36:50.829Z,98804.22
2023-06-04T07:39:21.273Z,98792.66
2023-06-04T07:41:51.828Z,98789.72
2023-06-04T07:44:22.309Z,98808.69
2023-06-04T07:46:52.838Z,98815.69
2023-06-04T07:49:25.077Z,98815.09
2023-06-04T07:51:55.640Z,98808.28
2023-06-04T07:54:26.335Z,98809.28
2023-06-04T07:56:58.113Z,98805.09
2023-06-04T07:59:28.609Z,98811.41
2023-06-04T08:01:59.184Z,98814.13
2023-06-04T08:04:31.674Z,98819.34
2023-06-04T08:07:02.616Z,98812.47
2023-06-04T08:09:33.160Z,98819.34
2023-06-04T08:12:04.076Z,98819.34
2023-06-04T08:14:34.646Z,98815.19
2023-06-04T08:17:05.133Z,98824.72
2023-06-04T08:19:37.268Z,98818.78
2023-06-04T08:22:09.130Z,98823.06
2023-06-04T08:24:39.619Z,98821.56
2023-06-04T08:27:10.991Z,98842.31
2023-06-04T08:29:42.185Z,98790.28
2023-06-04T08:32:12.857Z,98832.28
2023-06-04T08:34:45.038Z,98801.72
2023-06-04T08:37:15.712Z,98840.25
2023-06-04T08:39:46.252Z,98839.41
2023-06-04T08:42:31.550Z,98818.56
2023-06-04T08:45:02.693Z,98835.50
2023-06-04T08:47:34.690Z,98836.97
2023-06-04T08:50:10.486Z,98843.56
2023-06-04T08:52:42.720Z,98845.13
2023-06-04T08:55:16.202Z,98854.47
2023-06-04T08:57:47.385Z,98850.78
2023-06-04T09:00:22.584Z,98842.94
2023-06-04T09:02:54.820Z,98853.25
2023-06-04T09:05:30.440Z,98856.94
2023-06-04T09:08:08.384Z,98856.91
2023-06-04T09:10:43.661Z,98858.53
2023-06-04T09:16:38.674Z,98863.81
2023-06-04T09:19:18.399Z,98868.84
2023-06-04T09:21:59.344Z,98862.03
2023-06-04T09:24:42.420Z,98865.50
2023-06-04T09:27:18.352Z,98865.75
2023-06-04T09:29:59.831Z,98836.97
2023-06-04T09:32:36.911Z,98882.97
2023-06-04T09:35:56.852Z,98875.75
2023-06-04T09:38:42.190Z,98872.97
2023-06-04T09:41:37.314Z,98829.44
2023-06-04T09:44:12.730Z,98761.41
2023-06-04T09:46:56.899Z,98874.88
2023-06-04T09:49:33.942Z,98886.19
2023-06-04T09:52:06.255Z,98886.19
2023-06-04T09:54:44.913Z,98889.66
2023-06-04T09:57:23.751Z,98840.28
2023-06-04T09:59:56.209Z,98881.38
2023-06-04T10:02:35.285Z,98823.28
2023-06-04T10:06:04.304Z,98884.03
2023-06-04T10:08:36.003Z,98879.09
2023-06-04T10:11:10.247Z,98892.75
2023-06-04T10:13:49.162Z,98897.63
2023-06-04T10:16:32.731Z,98893.22
2023-06-04T10:19:08.698Z,98841.88
2023-06-04T10:21:40.402Z,98844.28
2023-06-04T10:24:13.791Z,98899.78
2023-06-04T10:26:48.213Z,98853.66
2023-06-04T10:29:21.536Z,98863.84
2023-06-04T10:31:57.542Z,98903.38
2023-06-04T10:34:32.068Z,98873.06
2023-06-04T10:37:09.347Z,98905.72
2023-06-04T10:39:41.877Z,98910.22
2023-06-04T10:42:14.328Z,98914.50
2023-06-04T10:44:49.875Z,98919.03
2023-06-04T10:47:26.968Z,98903.09
2023-06-04T10:50:21.750Z,98919.41
2023-06-04T10:52:59.521Z,98910.16
2023-06-04T10:55:30.331Z,98929.97
2023-06-04T10:58:15.097Z,98927.38
2023-06-04T11:00:50.651Z,98931.81
2023-06-04T11:03:21.813Z,98923.34
2023-06-04T11:05:59.845Z,98919.00
2023-06-04T11:08:43.270Z,98939.66
2023-06-04T11:11:17.914Z,98913.13
2023-06-04T11:13:51.238Z,98937.91
2023-06-04T11:16:24.994Z,98936.16
2023-06-04T11:19:04.124Z,98943.06
2023-06-04T11:21:38.710Z,98944.84
2023-06-04T11:24:11.414Z,98945.66
2023-06-04T11:26:48.054Z,98944.91
2023-06-04T11:29:27.406Z,98941.56
2023-06-04T11:31:59.811Z,98939.88
2023-06-04T11:34:33.089Z,98941.63
2023-06-04T11:37:15.590Z,98941.78
2023-06-04T11:39:47.422Z,98915.28
2023-06-04T11:42:26.265Z,98950.38
2023-06-04T11:45:03.411Z,98936.72
2023-06-04T11:47:36.121Z,98947.00
2023-06-04T11:50:09.620Z,98953.03
2023-06-04T11:52:42.501Z,98953.09
2023-06-04T11:55:15.509Z,98960.03
2023-06-04T11:57:47.789Z,98960.09
2023-06-04T12:00:22.400Z,98964.44
2023-06-04T12:02:56.429Z,98958.47
2023-06-04T12:05:33.625Z,98954.28
2023-06-04T12:08:12.638Z,98955.97
2023-06-04T12:10:45.722Z,98932.72
2023-06-04T12:13:17.537Z,98955.75
2023-06-04T12:15:57.261Z,98940.34
2023-06-04T12:18:29.841Z,98952.31
2023-06-04T12:21:01.469Z,98943.78
2023-06-04T12:23:33.150Z,98901.00
2023-06-04T12:26:06.183Z,98950.56
2023-06-04T12:28:38.562Z,98954.06
2023-06-04T12:31:21.331Z,98952.25
2023-06-04T12:33:53.079Z,98950.56
2023-06-04T12:36:25.330Z,98950.59
2023-06-04T12:38:57.189Z,98957.50
2023-06-04T12:41:29.046Z,98941.31
2023-06-04T12:44:01.612Z,98957.59
2023-06-04T12:46:35.092Z,98953.22
2023-06-04T12:49:10.397Z,98944.56
2023-06-04T12:51:42.369Z,98947.09
2023-06-04T12:54:14.067Z,98953.94
2023-06-04T12:56:54.703Z,98947.13
2023-06-04T12:59:26.259Z,98942.88
2023-06-04T13:02:00.357Z,98941.94
2023-06-04T13:04:32.070Z,98947.06
2023-06-04T13:11:09.103Z,98930.88
2023-06-04T13:13:42.837Z,98940.28
2023-06-04T13:16:13.628Z,98950.66
2023-06-04T13:18:46.072Z,98942.94
2023-06-04T13:21:17.981Z,98902.91
2023-06-04T13:23:53.238Z,98952.56
2023-06-04T13:26:25.920Z,98952.56
2023-06-04T13:28:57.490Z,98918.34
2023-06-04T13:31:29.335Z,98943.06
2023-06-04T13:34:08.947Z,98952.50
2023-06-04T13:36:46.443Z,98952.47
2023-06-04T13:39:18.211Z,98940.44
2023-06-04T13:41:49.761Z,98949.88
2023-06-04T13:44:21.462Z,98947.41
2023-06-04T13:46:53.269Z,98943.06
2023-06-04T13:49:26.522Z,98954.31
2023-06-04T13:51:58.212Z,98954.38
2023-06-04T13:54:30.286Z,98952.72
2023-06-04T13:57:03.368Z,98955.38
2023-06-04T13:59:34.968Z,98954.50
2023-06-04T14:02:07.003Z,98954.50
2023-06-04T14:04:42.306Z,98960.41
2023-06-04T14:07:14.388Z,98951.94
2023-06-04T14:09:45.912Z,98954.41
2023-06-04T14:12:20.304Z,98951.03
2023-06-04T14:14:51.829Z,98952.66
2023-06-04T14:17:27.524Z,98956.16
2023-06-04T14:20:02.518Z,98949.38
2023-06-04T14:22:34.183Z,98956.38
2023-06-04T14:25:06.061Z,98958.06
2023-06-04T14:27:39.266Z,98920.44
2023-06-04T14:30:14.016Z,98956.41
2023-06-04T14:32:46.035Z,98949.56
2023-06-04T14:35:19.748Z,98952.09
2023-06-04T14:37:52.636Z,98961.63
2023-06-04T14:40:25.070Z,98968.59
2023-06-04T14:42:57.091Z,98958.19
2023-06-04T14:45:28.736Z,98959.81
2023-06-04T14:48:13.984Z,98961.56
2023-06-04T14:50:49.297Z,98951.31
2023-06-04T14:53:20.826Z,98953.88
2023-06-04T14:55:54.183Z,98962.47
2023-06-04T14:58:25.940Z,98954.75
2023-06-04T15:01:05.689Z,98955.72
2023-06-04T15:03:37.088Z,98959.22
2023-06-04T15:06:21.089Z,98956.69
2023-06-04T15:08:52.869Z,98963.66
2023-06-04T15:11:23.397Z,98956.78
2023-06-04T15:13:54.026Z,98957.56
2023-06-04T15:16:32.424Z,98960.06
2023-06-04T15:19:03.262Z,98966.97
2023-06-04T15:21:45.980Z,98957.50
2023-06-04T15:24:22.965Z,98956.56
2023-06-04T15:26:54.039Z,98954.78
2023-06-04T15:29:24.753Z,98953.19
2023-06-04T15:31:59.500Z,98961.72
2023-06-04T15:34:34.334Z,98966.94
2023-06-04T15:37:06.838Z,98970.41
2023-06-04T15:39:38.552Z,98965.28
2023-06-04T15:42:09.518Z,98949.88
2023-06-04T15:44:40.673Z,98962.81
2023-06-04T15:47:11.453Z,98964.44
2023-06-04T15:49:42.223Z,98966.97
2023-06-04T15:52:22.110Z,98965.34
2023-06-04T15:54:53.938Z,98963.59
2023-06-04T15:57:31.615Z,98955.06
2023-06-04T16:00:09.864Z,98961.91
2023-06-04T16:02:43.214Z,98967.09
2023-06-04T16:05:17.767Z,98970.63
2023-06-04T16:07:59.362Z,98975.81
2023-06-04T16:10:30.116Z,98924.47
2023-06-04T16:13:00.672Z,98972.38
2023-06-04T16:15:32.664Z,98974.06
2023-06-04T16:18:03.320Z,98963.81
2023-06-04T16:20:36.534Z,98928.66
2023-06-04T16:23:08.845Z,98976.72
2023-06-04T16:25:42.688Z,98981.75
2023-06-04T16:28:15.344Z,98974.91
2023-06-04T16:30:45.918Z,98973.28
2023-06-04T16:33:16.650Z,98986.16
2023-06-04T16:35:47.484Z,98989.59
2023-06-04T16:38:19.934Z,98985.25
2023-06-04T16:40:53.272Z,98984.41
2023-06-04T16:43:24.537Z,98994.81
2023-06-04T16:45:57.150Z,98995.72
2023-06-04T16:48:27.809Z,99000.94
2023-06-04T16:51:03.148Z,98999.19
2023-06-04T16:53:35.577Z,99007.84
2023-06-04T16:56:07.027Z,98981.19
2023-06-04T16:58:42.803Z,99006.91
2023-06-04T17:01:14.322Z,99004.28
2023-06-04T17:03:46.016Z,99004.28
2023-06-04T17:06:17.774Z,99014.66
2023-06-04T17:08:50.262Z,99001.84
2023-06-04T17:11:21.491Z,99017.41
2023-06-04T17:13:59.620Z,99026.88
2023-06-04T17:16:32.575Z,99025.91
2023-06-04T17:19:03.840Z,99030.22
2023-06-04T17:21:37.397Z,99031.06
2023-06-04T17:24:13.091Z,99005.47
2023-06-04T17:26:45.752Z,99032.03
2023-06-04T17:29:19.156Z,99030.34
2023-06-04T17:31:50.073Z,99038.94
2023-06-04T17:34:21.181Z,99038.94
2023-06-04T17:36:52.022Z,99032.94
2023-06-04T17:39:24.380Z,99034.63
2023-06-04T17:41:55.080Z,99038.09
2023-06-04T17:44:25.660Z,99022.69
2023-06-04T17:46:57.938Z,99038.06
2023-06-04T17:49:31.367Z,99041.50
2023-06-04T17:52:03.431Z,99045.78
2023-06-04T17:54:35.698Z,99029.44
2023-06-04T17:57:07.590Z,99051.75
2023-06-04T17:59:38.298Z,99050.06
2023-06-04T18:02:09.615Z,99041.53
2023-06-04T18:04:41.600Z,99053.50
2023-06-04T18:07:12.298Z,99056.88
2023-06-04T18:09:46.949Z,99058.50
2023-06-04T18:12:22.409Z,99061.91
2023-06-04T18:14:54.659Z,99062.84
2023-06-04T18:17:25.547Z,99066.34
2023-06-04T18:19:59.232Z,99060.34
2023-06-04T18:22:29.891Z,99070.63
2023-06-04T18:25:05.716Z,99069.88
2023-06-04T18:27:42.483Z,99080.16
2023-06-04T18:30:13.539Z,99075.78
2023-06-04T18:32:47.950Z,99074.06
2023-06-04T18:35:20.598Z,99078.38
2023-06-04T18:37:51.663Z,99079.38
2023-06-04T18:40:24.791Z,99075.88
2023-06-04T18:42:55.397Z,99080.25
2023-06-04T18:45:29.767Z,99075.84
2023-06-04T18:48:02.997Z,99086.19
2023-06-04T18:50:34.706Z,99082.75
2023-06-04T18:53:06.031Z,99081.91
2023-06-04T18:55:38.502Z,99091.31
2023-06-04T18:58:13.299Z,99081.81
2023-06-04T19:00:44.259Z,99090.47
2023-06-04T19:03:14.704Z,99093.09
2023-06-04T19:05:45.124Z,99102.63
2023-06-04T19:08:15.635Z,99087.94
2023-06-04T19:10:52.103Z,99093.16
2023-06-04T19:13:22.899Z,99096.53
2023-06-04T19:15:54.577Z,99091.31
2023-06-04T19:18:25.301Z,99096.50
2023-06-04T19:20:55.913Z,99101.63
2023-06-04T19:23:26.563Z,99103.25
2023-06-04T19:25:58.804Z,99103.22
2023-06-04T19:28:29.545Z,99098.94
2023-06-04T19:31:00.099Z,99110.03
2023-06-04T19:33:34.272Z,99104.88
2023-06-04T19:36:05.462Z,99102.31
2023-06-04T19:38:36.029Z,99107.50
2023-06-04T19:41:08.125Z,99112.63
2023-06-04T19:43:38.694Z,99113.38
2023-06-04T19:46:09.391Z,99115.97
2023-06-04T19:48:40.211Z,99107.34
2023-06-04T19:51:11.030Z,99113.38
2023-06-04T19:53:41.663Z,99112.53
2023-06-04T19:56:13.746Z,99115.06
2023-06-04T19:58:44.250Z,99125.34
2023-06-04T20:01:14.752Z,99128.81
2023-06-04T20:03:45.248Z,99122.78
2023-06-04T20:06:15.776Z,99129.59
2023-06-04T20:08:46.697Z,99131.41
2023-06-04T20:11:18.883Z,99137.44
2023-06-04T20:13:49.395Z,99126.22
2023-06-04T20:16:19.919Z,99133.00
2023-06-04T20:18:52.700Z,99118.34
2023-06-04T20:21:23.148Z,99131.16
2023-06-04T20:23:55.307Z,99130.25
2023-06-04T20:26:28.486Z,99133.69
2023-06-04T20:28:59.958Z,99137.22
2023-06-04T20:31:30.927Z,99140.59
2023-06-04T20:34:01.534Z,99137.09
2023-06-04T20:36:33.849Z,99137.00
2023-06-04T20:39:05.078Z,99143.88
2023-06-04T20:41:37.187Z,99141.22
2023-06-04T20:44:07.659Z,99147.09
2023-06-04T20:46:38.108Z,99144.53
2023-06-04T20:49:08.686Z,99148.91
2023-06-04T20:51:39.193Z,99151.44
2023-06-04T20:54:09.870Z,99154.69
2023-06-04T20:56:45.363Z,99150.31
2023-06-04T20:59:18.176Z,99148.50
2023-06-04T21:01:48.751Z,99156.22
2023-06-04T21:04:19.418Z,99165.63
2023-06-04T21:06:51.086Z,99155.03
2023-06-04T21:09:21.692Z,99154.78
2023-06-04T21:11:53.908Z,99143.44
2023-06-04T21:14:24.376Z,99102.28
2023-06-04T21:16:54.896Z,99150.22
2023-06-04T21:19:25.992Z,99155.41
2023-06-04T21:21:57.683Z,99157.75
2023-06-04T21:24:28.275Z,99159.50
2023-06-04T21:27:00.795Z,99157.72
2023-06-04T21:29:31.374Z,99162.84
2023-06-04T21:32:01.963Z,99164.53
2023-06-04T21:34:35.521Z,99164.47
2023-06-04T21:37:05.929Z,99169.53
2023-06-04T21:39:37.829Z,99170.22
2023-06-04T21:42:10.867Z,99173.69
2023-06-04T21:44:41.447Z,99054.69
2023-06-04T21:47:12.362Z,99168.38
2023-06-04T21:49:42.832Z,99181.28
2023-06-04T21:52:21.641Z,99182.19
2023-06-04T21:54:55.763Z,99169.34
2023-06-04T21:57:27.882Z,99174.47
2023-06-04T21:59:58.433Z,99164.88
2023-06-04T22:02:28.974Z,99179.63
2023-06-04T22:04:59.577Z,99181.44
2023-06-04T22:07:30.213Z,99178.66
2023-06-04T22:10:00.861Z,99179.13
2023-06-04T22:12:32.919Z,99177.25
2023-06-04T22:15:03.456Z,99170.09
2023-06-04T22:17:34.027Z,99173.38
2023-06-04T22:20:04.790Z,99176.53
2023-06-04T22:22:35.255Z,99170.91
2023-06-04T22:25:05.713Z,99172.00
2023-06-04T22:27:37.772Z,99167.84
2023-06-04T22:30:09.394Z,99170.09
2023-06-04T22:32:39.894Z,99172.75
2023-06-04T22:35:10.675Z,99159.50
2023-06-04T22:37:41.152Z,99176.56
2023-06-04T22:40:12.463Z,99170.13
2023-06-04T22:42:44.598Z,99179.97
2023-06-04T22:45:15.251Z,99180.63
2023-06-04T22:47:45.802Z,99166.34
2023-06-04T22:50:16.519Z,99170.56
2023-06-04T22:52:47.140Z,99174.78
2023-06-04T22:55:19.228Z,99169.75
2023-06-04T22:57:52.781Z,99135.19
2023-06-04T23:00:24.021Z,99173.00
2023-06-04T23:02:57.309Z,99165.66
2023-06-04T23:05:27.987Z,99166.16
2023-06-04T23:07:58.600Z,99172.09
2023-06-04T23:10:29.265Z,99166.47
2023-06-04T23:13:01.438Z,99175.81
2023-06-04T23:15:31.922Z,99166.66
2023-06-04T23:18:02.591Z,99182.09
2023-06-04T23:20:33.197Z,99170.44
2023-06-04T23:23:03.832Z,99178.38
2023-06-04T23:25:34.594Z,99181.94
2023-06-04T23:28:06.946Z,99186.63
2023-06-04T23:30:37.647Z,99192.44
2023-06-04T23:33:08.290Z,99184.56
2023-06-04T23:35:38.940Z,99194.81
2023-06-04T23:38:09.591Z,99182.53
2023-06-04T23:40:40.198Z,99184.31
2023-06-04T23:43:12.383Z,99195.00
2023-06-04T23:45:43.048Z,99182.69
2023-06-04T23:48:13.758Z,99184.66
2023-06-04T23:50:44.377Z,99175.72
2023-06-04T23:53:14.988Z,99186.22
2023-06-04T23:55:45.561Z,99189.91
2023-06-04T23:58:18.098Z,99102.06
